createdAt,value
2018-10-03T00:00:13.433Z,0
2018-10-03T00:01:23.194Z,0
2018-10-03T00:02:32.963Z,0
2018-10-03T00:03:42.454Z,0
2018-10-03T00:04:52.485Z,0
2018-10-03T00:06:01.980Z,0
2018-10-03T00:07:12.018Z,0
2018-10-03T00:08:21.779Z,0
2018-10-03T00:09:31.868Z,0
2018-10-03T00:10:41.365Z,0
2018-10-03T00:11:51.124Z,0
2018-10-03T00:13:00.887Z,0
2018-10-03T00:14:10.915Z,0
2018-10-03T00:15:20.997Z,0
2018-10-03T00:16:30.758Z,0
2018-10-03T00:17:40.519Z,0
2018-10-03T00:18:50.295Z,0
2018-10-03T00:20:00.056Z,0
2018-10-03T00:21:09.875Z,0
2018-10-03T00:22:19.642Z,0
2018-10-03T00:23:30.350Z,0
2018-10-03T00:24:40.152Z,0
2018-10-03T00:25:50.193Z,0
2018-10-03T00:27:00.222Z,0
2018-10-03T00:28:10.024Z,0
2018-10-03T00:29:19.517Z,0
2018-10-03T00:30:29.010Z,0
2018-10-03T00:31:39.042Z,0
2018-10-03T00:32:49.073Z,0
2018-10-03T00:33:59.103Z,0
2018-10-03T00:35:08.594Z,0
2018-10-03T00:36:18.638Z,0
2018-10-03T00:37:28.397Z,0
2018-10-03T00:38:38.479Z,0
2018-10-03T00:39:48.510Z,0
2018-10-03T00:40:58.549Z,0
2018-10-03T00:42:08.317Z,0
2018-10-03T00:43:17.812Z,0
2018-10-03T00:44:27.574Z,0
2018-10-03T00:45:37.601Z,0
2018-10-03T00:46:47.631Z,0
2018-10-03T00:47:57.659Z,0
2018-10-03T00:49:07.419Z,0
2018-10-03T00:50:16.917Z,0
2018-10-03T00:51:26.670Z,0
2018-10-03T00:52:35.911Z,0
2018-10-03T00:53:45.669Z,0
2018-10-03T00:54:55.692Z,0
2018-10-03T00:56:05.771Z,0
2018-10-03T00:57:15.535Z,0
2018-10-03T00:58:25.027Z,0
2018-10-03T00:59:35.058Z,0
2018-10-03T01:00:44.821Z,0
2018-10-03T01:01:54.581Z,0
2018-10-03T01:03:04.612Z,0
2018-10-03T01:04:14.646Z,0
2018-10-03T01:05:24.675Z,0
2018-10-03T01:06:34.701Z,0
2018-10-03T01:07:46.471Z,0
2018-10-03T01:08:56.498Z,0
2018-10-03T01:10:05.732Z,0
2018-10-03T01:11:15.766Z,0
2018-10-03T01:12:25.255Z,0
2018-10-03T01:13:35.014Z,0
2018-10-03T01:14:45.052Z,0
2018-10-03T01:15:54.840Z,0
2018-10-03T01:17:04.901Z,0
2018-10-03T01:18:14.673Z,0
2018-10-03T01:19:23.944Z,0
2018-10-03T01:20:33.974Z,0
2018-10-03T01:21:44.011Z,0
2018-10-03T01:22:54.047Z,0
2018-10-03T01:24:03.812Z,0
2018-10-03T01:25:13.872Z,0
2018-10-03T01:26:23.909Z,0
2018-10-03T01:27:33.677Z,0
2018-10-03T01:28:43.705Z,0
2018-10-03T01:29:53.735Z,0
2018-10-03T01:31:03.771Z,0
2018-10-03T01:32:13.534Z,0
2018-10-03T01:33:23.292Z,0
2018-10-03T01:34:33.073Z,0
2018-10-03T01:35:42.296Z,0
2018-10-03T01:36:51.791Z,0
2018-10-03T01:38:01.542Z,0
2018-10-03T01:39:11.318Z,0
2018-10-03T01:40:21.361Z,0
2018-10-03T01:41:31.121Z,0
2018-10-03T01:42:40.891Z,0
2018-10-03T01:43:50.657Z,0
2018-10-03T01:45:00.462Z,0
2018-10-03T01:46:10.229Z,0
2018-10-03T01:47:20.267Z,0
2018-10-03T01:48:29.756Z,0
2018-10-03T01:49:39.784Z,0
2018-10-03T01:50:49.274Z,0
2018-10-03T01:51:59.030Z,0
2018-10-03T01:53:08.795Z,0
2018-10-03T01:54:18.563Z,0
2018-10-03T01:55:28.603Z,0
2018-10-03T01:56:38.629Z,0
2018-10-03T01:57:48.726Z,0
2018-10-03T01:58:58.759Z,0
2018-10-03T02:00:08.543Z,0
2018-10-03T02:01:18.307Z,0
2018-10-03T02:02:27.800Z,0
2018-10-03T02:03:37.823Z,0
2018-10-03T02:04:47.852Z,0
2018-10-03T02:05:57.609Z,0
2018-10-03T02:07:07.098Z,0
2018-10-03T02:08:17.124Z,0
2018-10-03T02:09:26.628Z,0
2018-10-03T02:10:36.395Z,0
2018-10-03T02:11:46.426Z,0
2018-10-03T02:12:56.451Z,0
2018-10-03T02:14:06.217Z,0
2018-10-03T02:15:15.988Z,0
2018-10-03T02:16:26.025Z,0
2018-10-03T02:17:36.056Z,0
2018-10-03T02:18:46.088Z,0
2018-10-03T02:19:55.851Z,0
2018-10-03T02:21:05.893Z,0
2018-10-03T02:22:15.919Z,0
2018-10-03T02:23:25.140Z,0
2018-10-03T02:24:35.168Z,0
2018-10-03T02:25:45.199Z,0
2018-10-03T02:26:55.228Z,0
2018-10-03T02:28:04.990Z,0
2018-10-03T02:29:14.759Z,0
2018-10-03T02:30:24.530Z,0
2018-10-03T02:31:34.560Z,0
2018-10-03T02:32:44.596Z,0
2018-10-03T02:33:54.626Z,0
2018-10-03T02:35:04.659Z,0
2018-10-03T02:36:14.427Z,0
2018-10-03T02:37:24.185Z,0
2018-10-03T02:38:33.948Z,0
2018-10-03T02:39:43.993Z,0
2018-10-03T02:40:53.493Z,0
2018-10-03T02:42:03.282Z,0
2018-10-03T02:43:12.776Z,0
2018-10-03T02:44:22.807Z,0
2018-10-03T02:45:32.573Z,0
2018-10-03T02:46:42.598Z,0
2018-10-03T02:47:52.635Z,0
2018-10-03T02:49:02.670Z,0
2018-10-03T02:50:12.173Z,0
2018-10-03T02:51:21.399Z,0
2018-10-03T02:52:31.452Z,0
2018-10-03T02:53:41.224Z,0
2018-10-03T02:54:50.737Z,0
2018-10-03T02:56:00.767Z,0
2018-10-03T02:57:10.537Z,0
2018-10-03T02:58:20.569Z,0
2018-10-03T02:59:30.602Z,0
2018-10-03T03:00:39.827Z,0
2018-10-03T03:01:50.494Z,0
2018-10-03T03:03:00.650Z,0
2018-10-03T03:04:10.721Z,0
2018-10-03T03:05:20.760Z,0
2018-10-03T03:06:30.823Z,0
2018-10-03T03:07:40.587Z,0
2018-10-03T03:08:50.999Z,0
2018-10-03T03:10:01.247Z,0
2018-10-03T03:11:11.284Z,0
2018-10-03T03:12:21.323Z,0
2018-10-03T03:13:31.084Z,0
2018-10-03T03:14:40.851Z,0
2018-10-03T03:15:50.880Z,0
2018-10-03T03:17:00.910Z,0
2018-10-03T03:18:10.402Z,0
2018-10-03T03:19:20.179Z,0
2018-10-03T03:20:29.945Z,0
2018-10-03T03:21:39.733Z,0
2018-10-03T03:22:49.496Z,0
2018-10-03T03:23:58.999Z,0
2018-10-03T03:25:09.031Z,0
2018-10-03T03:26:19.061Z,0
2018-10-03T03:27:29.094Z,0
2018-10-03T03:28:39.160Z,0
2018-10-03T03:29:48.926Z,0
2018-10-03T03:30:58.954Z,0
2018-10-03T03:32:09.015Z,0
2018-10-03T03:33:19.061Z,0
2018-10-03T03:34:29.098Z,0
2018-10-03T03:35:39.138Z,0
2018-10-03T03:36:48.626Z,0
2018-10-03T03:37:58.657Z,0
2018-10-03T03:39:08.171Z,0
2018-10-03T03:40:17.675Z,0
2018-10-03T03:41:27.709Z,0
2018-10-03T03:42:37.466Z,0
2018-10-03T03:43:47.498Z,0
2018-10-03T03:44:57.265Z,0
2018-10-03T03:46:06.784Z,0
2018-10-03T03:47:16.812Z,0
2018-10-03T03:48:26.583Z,0
2018-10-03T03:49:36.621Z,0
2018-10-03T03:50:46.386Z,0
2018-10-03T03:51:55.902Z,0
2018-10-03T03:53:05.934Z,0
2018-10-03T03:54:15.991Z,0
2018-10-03T03:55:25.493Z,0
2018-10-03T03:56:35.250Z,0
2018-10-03T03:57:45.296Z,0
2018-10-03T03:58:55.079Z,0
2018-10-03T04:00:04.903Z,0
2018-10-03T04:01:14.944Z,0
2018-10-03T04:02:24.985Z,0
2018-10-03T04:03:34.482Z,0
2018-10-03T04:04:44.521Z,0
2018-10-03T04:05:54.284Z,0
2018-10-03T04:07:04.058Z,0
2018-10-03T04:08:14.092Z,0
2018-10-03T04:09:23.862Z,0
2018-10-03T04:10:33.917Z,0
2018-10-03T04:11:43.706Z,0
2018-10-03T04:12:53.470Z,0
2018-10-03T04:14:03.504Z,0
2018-10-03T04:15:13.294Z,0
2018-10-03T04:16:23.325Z,0
2018-10-03T04:17:33.364Z,0
2018-10-03T04:18:42.861Z,0
2018-10-03T04:19:52.621Z,0
2018-10-03T04:21:02.649Z,0
2018-10-03T04:22:12.682Z,0
2018-10-03T04:23:22.447Z,0
2018-10-03T04:24:32.208Z,0
2018-10-03T04:25:42.234Z,0
2018-10-03T04:26:52.285Z,0
2018-10-03T04:28:02.047Z,0
2018-10-03T04:29:12.080Z,0
2018-10-03T04:30:22.110Z,0
2018-10-03T04:31:32.194Z,0
2018-10-03T04:32:42.254Z,0
2018-10-03T04:33:52.295Z,0
2018-10-03T04:35:02.329Z,0
2018-10-03T04:36:11.823Z,0
2018-10-03T04:37:21.855Z,0
2018-10-03T04:38:31.615Z,0
2018-10-03T04:39:41.688Z,0
2018-10-03T04:40:51.721Z,0
2018-10-03T04:42:01.537Z,0
2018-10-03T04:43:11.592Z,0
2018-10-03T04:44:21.655Z,0
2018-10-03T04:45:31.426Z,0
2018-10-03T04:46:41.464Z,0
2018-10-03T04:47:51.489Z,0
2018-10-03T04:49:01.655Z,0
2018-10-03T04:50:11.491Z,0
2018-10-03T04:51:21.516Z,0
2018-10-03T04:52:31.543Z,0
2018-10-03T04:53:41.572Z,0
2018-10-03T04:54:51.379Z,0
2018-10-03T04:56:01.141Z,0
2018-10-03T04:57:11.170Z,0
2018-10-03T04:58:20.931Z,0
2018-10-03T04:59:30.692Z,0
2018-10-03T05:00:40.257Z,0
2018-10-03T05:01:50.282Z,0
2018-10-03T05:03:00.308Z,0
2018-10-03T05:04:10.072Z,0
2018-10-03T05:05:19.568Z,0
2018-10-03T05:06:29.370Z,0
2018-10-03T05:07:39.139Z,0
2018-10-03T05:08:49.163Z,0
2018-10-03T05:09:58.928Z,0
2018-10-03T05:11:09.046Z,0
2018-10-03T05:12:18.645Z,0
2018-10-03T05:13:28.140Z,0
2018-10-03T05:14:37.896Z,0
2018-10-03T05:15:47.916Z,0
2018-10-03T05:16:57.669Z,0
2018-10-03T05:18:07.477Z,5
2018-10-03T05:19:17.242Z,5
2018-10-03T05:20:27.001Z,5
2018-10-03T05:21:36.494Z,5
2018-10-03T05:22:46.258Z,5
2018-10-03T05:23:56.344Z,5
2018-10-03T05:25:06.109Z,10
2018-10-03T05:26:15.597Z,10
2018-10-03T05:27:25.085Z,10
2018-10-03T05:28:35.107Z,10
2018-10-03T05:29:44.865Z,10
2018-10-03T05:30:54.354Z,15
2018-10-03T05:32:04.112Z,15
2018-10-03T05:33:13.997Z,15
2018-10-03T05:34:24.096Z,20
2018-10-03T05:35:33.637Z,20
2018-10-03T05:36:43.667Z,25
2018-10-03T05:37:53.685Z,25
2018-10-03T05:39:03.709Z,25
2018-10-03T05:40:13.200Z,30
2018-10-03T05:41:22.738Z,30
2018-10-03T05:42:32.774Z,30
2018-10-03T05:43:42.528Z,35
2018-10-03T05:44:52.554Z,35
2018-10-03T05:46:02.592Z,35
2018-10-03T05:47:12.412Z,40
2018-10-03T05:48:22.695Z,40
2018-10-03T05:49:32.775Z,40
2018-10-03T05:50:42.544Z,40
2018-10-03T05:51:52.564Z,45
2018-10-03T05:53:02.643Z,45
2018-10-03T05:54:12.674Z,45
2018-10-03T05:55:22.700Z,50
2018-10-03T05:56:32.731Z,50
2018-10-03T05:57:42.486Z,50
2018-10-03T05:58:52.310Z,55
2018-10-03T06:00:02.329Z,55
2018-10-03T06:01:11.829Z,55
2018-10-03T06:02:21.846Z,60
2018-10-03T06:03:31.605Z,60
2018-10-03T06:04:41.688Z,60
2018-10-03T06:05:51.446Z,60
2018-10-03T06:07:01.204Z,65
2018-10-03T06:08:11.235Z,65
2018-10-03T06:09:20.987Z,65
2018-10-03T06:10:31.128Z,70
2018-10-03T06:11:40.879Z,70
2018-10-03T06:12:50.908Z,70
2018-10-03T06:14:00.949Z,70
2018-10-03T06:15:10.722Z,70
2018-10-03T06:16:20.806Z,70
2018-10-03T06:17:31.280Z,65
2018-10-03T06:18:41.487Z,65
2018-10-03T06:19:51.575Z,65
2018-10-03T06:21:01.064Z,70
2018-10-03T06:22:11.143Z,70
2018-10-03T06:23:21.225Z,70
2018-10-03T06:24:31.261Z,75
2018-10-03T06:25:41.288Z,75
2018-10-03T06:26:51.339Z,75
2018-10-03T06:28:01.544Z,75
2018-10-03T06:29:11.303Z,90
2018-10-03T06:30:21.327Z,85
2018-10-03T06:31:31.078Z,85
2018-10-03T06:32:40.560Z,90
2018-10-03T06:33:50.365Z,85
2018-10-03T06:35:00.128Z,85
2018-10-03T06:36:09.622Z,90
2018-10-03T06:37:19.380Z,95
2018-10-03T06:38:29.138Z,100
2018-10-03T06:39:39.607Z,100
2018-10-03T06:40:49.370Z,100
2018-10-03T06:41:59.630Z,100
2018-10-03T06:43:09.933Z,105
2018-10-03T06:44:20.231Z,105
2018-10-03T06:45:30.456Z,105
2018-10-03T06:46:40.487Z,105
2018-10-03T06:47:50.243Z,110
2018-10-03T06:49:00.280Z,110
2018-10-03T06:50:10.313Z,110
2018-10-03T06:51:20.464Z,110
2018-10-03T06:52:30.493Z,110
2018-10-03T06:53:40.512Z,115
2018-10-03T06:54:50.272Z,115
2018-10-03T06:56:00.031Z,115
2018-10-03T06:57:09.895Z,115
2018-10-03T06:58:19.959Z,115
2018-10-03T06:59:30.000Z,120
2018-10-03T07:00:39.760Z,120
2018-10-03T07:01:49.799Z,120
2018-10-03T07:02:59.612Z,120
2018-10-03T07:04:09.641Z,125
2018-10-03T07:05:19.665Z,125
2018-10-03T07:06:29.424Z,125
2018-10-03T07:07:39.185Z,125
2018-10-03T07:08:48.988Z,125
2018-10-03T07:09:59.015Z,125
2018-10-03T07:11:09.055Z,125
2018-10-03T07:12:18.813Z,125
2018-10-03T07:13:28.308Z,130
2018-10-03T07:14:38.332Z,130
2018-10-03T07:15:48.405Z,130
2018-10-03T07:16:58.433Z,130
2018-10-03T07:18:08.465Z,130
2018-10-03T07:19:18.486Z,130
2018-10-03T07:20:28.244Z,135
2018-10-03T07:21:38.280Z,125
2018-10-03T07:22:48.357Z,120
2018-10-03T07:23:57.575Z,115
2018-10-03T07:25:07.347Z,120
2018-10-03T07:26:17.975Z,135
2018-10-03T07:27:27.580Z,135
2018-10-03T07:28:37.073Z,135
2018-10-03T07:29:46.828Z,135
2018-10-03T07:30:56.858Z,135
2018-10-03T07:32:06.408Z,135
2018-10-03T07:33:16.164Z,135
2018-10-03T07:34:26.191Z,135
2018-10-03T07:35:35.677Z,135
2018-10-03T07:36:45.703Z,140
2018-10-03T07:37:55.461Z,140
2018-10-03T07:39:05.218Z,140
2018-10-03T07:40:14.999Z,140
2018-10-03T07:41:24.753Z,140
2018-10-03T07:42:33.980Z,140
2018-10-03T07:43:43.788Z,140
2018-10-03T07:44:53.554Z,140
2018-10-03T07:46:03.040Z,140
2018-10-03T07:47:13.066Z,135
2018-10-03T07:48:22.821Z,135
2018-10-03T07:49:32.916Z,135
2018-10-03T07:50:42.679Z,145
2018-10-03T07:51:52.167Z,145
2018-10-03T07:53:01.925Z,145
2018-10-03T07:54:11.424Z,145
2018-10-03T07:55:21.290Z,145
2018-10-03T07:56:31.483Z,145
2018-10-03T07:57:41.516Z,145
2018-10-03T07:58:51.712Z,145
2018-10-03T08:00:01.746Z,145
2018-10-03T08:01:11.295Z,150
2018-10-03T08:02:21.327Z,150
2018-10-03T08:03:31.346Z,150
2018-10-03T08:04:40.834Z,150
2018-10-03T08:05:50.915Z,150
2018-10-03T08:07:00.676Z,150
2018-10-03T08:08:10.487Z,150
2018-10-03T08:09:20.518Z,150
2018-10-03T08:10:30.546Z,150
2018-10-03T08:11:40.570Z,150
2018-10-03T08:12:50.654Z,150
2018-10-03T08:14:00.704Z,150
2018-10-03T08:15:10.220Z,155
2018-10-03T08:16:20.249Z,155
2018-10-03T08:17:30.792Z,155
2018-10-03T08:18:40.937Z,155
2018-10-03T08:19:50.964Z,155
2018-10-03T08:21:00.722Z,155
2018-10-03T08:22:10.759Z,155
2018-10-03T08:23:20.795Z,155
2018-10-03T08:24:30.604Z,155
2018-10-03T08:25:40.428Z,155
2018-10-03T08:26:49.921Z,155
2018-10-03T08:27:59.956Z,155
2018-10-03T08:29:09.981Z,155
2018-10-03T08:30:19.951Z,160
2018-10-03T08:31:29.999Z,160
2018-10-03T08:32:40.459Z,160
2018-10-03T08:33:50.308Z,160
2018-10-03T08:35:00.348Z,160
2018-10-03T08:36:10.155Z,160
2018-10-03T08:37:20.177Z,160
2018-10-03T08:38:30.019Z,160
2018-10-03T08:39:39.571Z,160
2018-10-03T08:40:49.380Z,160
2018-10-03T08:41:59.471Z,160
2018-10-03T08:43:09.249Z,160
2018-10-03T08:44:19.013Z,160
2018-10-03T08:45:28.652Z,165
2018-10-03T08:46:38.242Z,165
2018-10-03T08:47:48.055Z,165
2018-10-03T08:48:57.277Z,165
2018-10-03T08:50:06.775Z,165
2018-10-03T08:51:16.810Z,165
2018-10-03T08:52:26.573Z,165
2018-10-03T08:53:36.659Z,165
2018-10-03T08:54:46.161Z,165
2018-10-03T08:55:55.656Z,165
2018-10-03T08:57:05.419Z,165
2018-10-03T08:58:16.178Z,165
2018-10-03T08:59:25.797Z,165
2018-10-03T09:00:35.833Z,165
2018-10-03T09:01:45.920Z,165
2018-10-03T09:02:55.638Z,165
2018-10-03T09:04:05.131Z,165
2018-10-03T09:05:14.629Z,165
2018-10-03T09:06:24.392Z,165
2018-10-03T09:07:34.426Z,175
2018-10-03T09:08:44.192Z,170
2018-10-03T09:09:53.951Z,170
2018-10-03T09:11:03.495Z,175
2018-10-03T09:12:13.531Z,170
2018-10-03T09:13:23.348Z,170
2018-10-03T09:14:33.393Z,170
2018-10-03T09:15:43.420Z,170
2018-10-03T09:16:53.561Z,165
2018-10-03T09:18:03.329Z,170
2018-10-03T09:19:13.367Z,170
2018-10-03T09:20:23.404Z,170
2018-10-03T09:21:33.935Z,170
2018-10-03T09:22:43.728Z,170
2018-10-03T09:23:53.493Z,170
2018-10-03T09:25:03.520Z,170
2018-10-03T09:26:13.282Z,170
2018-10-03T09:27:23.321Z,170
2018-10-03T09:28:34.047Z,175
2018-10-03T09:29:43.849Z,175
2018-10-03T09:30:53.393Z,175
2018-10-03T09:32:03.160Z,175
2018-10-03T09:33:13.188Z,175
2018-10-03T09:34:23.266Z,175
2018-10-03T09:35:33.304Z,175
2018-10-03T09:36:43.351Z,175
2018-10-03T09:37:53.122Z,175
2018-10-03T09:39:02.889Z,175
2018-10-03T09:40:12.426Z,175
2018-10-03T09:41:22.466Z,175
2018-10-03T09:42:32.228Z,175
2018-10-03T09:43:41.771Z,175
2018-10-03T09:44:52.036Z,175
2018-10-03T09:46:01.809Z,175
2018-10-03T09:47:11.580Z,175
2018-10-03T09:48:21.079Z,175
2018-10-03T09:49:30.307Z,180
2018-10-03T09:50:40.069Z,180
2018-10-03T09:51:50.162Z,180
2018-10-03T09:52:59.940Z,180
2018-10-03T09:54:09.703Z,180
2018-10-03T09:55:19.466Z,180
2018-10-03T09:56:28.958Z,180
2018-10-03T09:57:38.507Z,180
2018-10-03T09:58:48.543Z,180
2018-10-03T09:59:58.314Z,180
2018-10-03T10:01:08.600Z,180
2018-10-03T10:02:18.381Z,180
2018-10-03T10:03:28.196Z,185
2018-10-03T10:04:37.691Z,180
2018-10-03T10:05:47.722Z,180
2018-10-03T10:06:57.483Z,185
2018-10-03T10:08:07.528Z,185
2018-10-03T10:09:17.008Z,185
2018-10-03T10:10:27.237Z,185
2018-10-03T10:11:37.987Z,190
2018-10-03T10:12:48.224Z,190
2018-10-03T10:13:58.251Z,190
2018-10-03T10:15:07.754Z,185
2018-10-03T10:16:17.789Z,180
2018-10-03T10:17:27.820Z,185
2018-10-03T10:18:37.588Z,185
2018-10-03T10:19:47.083Z,185
2018-10-03T10:20:57.787Z,185
2018-10-03T10:22:07.069Z,190
2018-10-03T10:23:17.104Z,190
2018-10-03T10:24:27.143Z,190
2018-10-03T10:25:36.917Z,190
2018-10-03T10:26:46.997Z,190
2018-10-03T10:27:56.758Z,190
2018-10-03T10:29:06.522Z,190
2018-10-03T10:30:16.555Z,190
2018-10-03T10:31:26.599Z,190
2018-10-03T10:32:37.066Z,190
2018-10-03T10:33:47.110Z,190
2018-10-03T10:34:57.146Z,190
2018-10-03T10:36:06.717Z,195
2018-10-03T10:37:16.217Z,195
2018-10-03T10:38:26.307Z,195
2018-10-03T10:39:36.355Z,195
2018-10-03T10:40:46.842Z,195
2018-10-03T10:41:56.543Z,195
2018-10-03T10:43:06.301Z,200
2018-10-03T10:44:16.380Z,200
2018-10-03T10:45:26.148Z,205
2018-10-03T10:46:36.135Z,205
2018-10-03T10:47:45.701Z,215
2018-10-03T10:48:55.203Z,290
2018-10-03T10:50:05.080Z,450
2018-10-03T10:51:14.854Z,505
2018-10-03T10:52:24.624Z,545
2018-10-03T10:53:34.662Z,580
2018-10-03T10:54:44.426Z,555
2018-10-03T10:55:54.511Z,300
2018-10-03T10:57:04.011Z,570
2018-10-03T10:58:14.042Z,580
2018-10-03T10:59:24.081Z,260
2018-10-03T11:00:33.864Z,585
2018-10-03T11:01:43.947Z,475
2018-10-03T11:02:53.987Z,600
2018-10-03T11:04:03.756Z,630
2018-10-03T11:05:13.530Z,625
2018-10-03T11:06:24.112Z,620
2018-10-03T11:07:33.980Z,605
2018-10-03T11:08:43.753Z,585
2018-10-03T11:09:53.527Z,255
2018-10-03T11:11:03.567Z,280
2018-10-03T11:12:13.061Z,445
2018-10-03T11:13:22.891Z,685
2018-10-03T11:14:32.929Z,695
2018-10-03T11:15:43.578Z,740
2018-10-03T11:16:53.611Z,730
2018-10-03T11:18:03.396Z,730
2018-10-03T11:19:12.995Z,730
2018-10-03T11:20:22.503Z,705
2018-10-03T11:21:32.012Z,700
2018-10-03T11:22:41.791Z,700
2018-10-03T11:23:52.549Z,690
2018-10-03T11:25:03.819Z,675
2018-10-03T11:26:13.504Z,415
2018-10-03T11:27:23.543Z,665
2018-10-03T11:28:33.071Z,670
2018-10-03T11:29:43.125Z,660
2018-10-03T11:30:53.226Z,645
2018-10-03T11:32:03.474Z,650
2018-10-03T11:33:13.054Z,645
2018-10-03T11:34:23.106Z,645
2018-10-03T11:35:33.150Z,655
2018-10-03T11:36:42.705Z,660
2018-10-03T11:37:52.745Z,670
2018-10-03T11:39:01.721Z,675
2018-10-03T11:40:11.255Z,675
2018-10-03T11:41:21.035Z,670
2018-10-03T11:42:30.864Z,675
2018-10-03T11:43:40.664Z,680
2018-10-03T11:44:50.447Z,690
2018-10-03T11:46:00.230Z,680
2018-10-03T11:47:10.013Z,685
2018-10-03T11:48:20.116Z,690
2018-10-03T11:49:30.186Z,690
2018-10-03T11:50:40.177Z,690
2018-10-03T11:51:50.309Z,690
2018-10-03T11:53:00.356Z,695
2018-10-03T11:54:10.202Z,705
2018-10-03T11:55:20.252Z,710
2018-10-03T11:56:29.766Z,715
2018-10-03T11:57:39.808Z,720
2018-10-03T11:58:49.857Z,720
2018-10-03T11:59:59.153Z,725
2018-10-03T12:01:09.212Z,735
2018-10-03T12:02:18.994Z,745
2018-10-03T12:03:29.754Z,750
2018-10-03T12:04:39.820Z,755
2018-10-03T12:05:49.652Z,760
2018-10-03T12:06:59.700Z,770
2018-10-03T12:08:09.760Z,780
2018-10-03T12:09:18.780Z,790
2018-10-03T12:10:28.626Z,800
2018-10-03T12:11:38.720Z,815
2018-10-03T12:12:48.769Z,835
2018-10-03T12:13:58.749Z,875
2018-10-03T12:15:08.537Z,935
2018-10-03T12:16:18.583Z,980
2018-10-03T12:17:28.416Z,1000
2018-10-03T12:18:37.926Z,1045
2018-10-03T12:19:48.030Z,1115
2018-10-03T12:20:57.542Z,1190
2018-10-03T12:22:07.327Z,1400
2018-10-03T12:23:17.475Z,3315
2018-10-03T12:24:26.993Z,4095
2018-10-03T12:25:36.503Z,2390
2018-10-03T12:26:46.015Z,1935
2018-10-03T12:27:56.066Z,1450
2018-10-03T12:29:06.397Z,1870
2018-10-03T12:30:15.920Z,1945
2018-10-03T12:31:25.969Z,1990
2018-10-03T12:32:35.212Z,1835
2018-10-03T12:33:45.153Z,1835
2018-10-03T12:34:55.328Z,1880
2018-10-03T12:36:05.382Z,1800
2018-10-03T12:37:15.429Z,1835
2018-10-03T12:38:24.938Z,1830
2018-10-03T12:39:34.996Z,1890
2018-10-03T12:40:45.099Z,1760
2018-10-03T12:41:54.876Z,1700
2018-10-03T12:43:04.661Z,1500
2018-10-03T12:44:14.442Z,715
2018-10-03T12:45:24.688Z,455
2018-10-03T12:46:34.787Z,225
2018-10-03T12:47:44.831Z,400
2018-10-03T12:48:54.884Z,245
2018-10-03T12:50:04.391Z,245
2018-10-03T12:51:14.439Z,270
2018-10-03T12:52:24.025Z,265
2018-10-03T12:53:34.072Z,245
2018-10-03T12:54:44.449Z,245
2018-10-03T12:55:54.567Z,275
2018-10-03T12:57:04.342Z,455
2018-10-03T12:58:14.165Z,295
2018-10-03T12:59:23.938Z,465
2018-10-03T13:00:33.717Z,295
2018-10-03T13:01:43.765Z,275
2018-10-03T13:02:53.271Z,250
2018-10-03T13:04:03.376Z,235
2018-10-03T13:05:12.880Z,245
2018-10-03T13:06:22.917Z,230
2018-10-03T13:07:32.958Z,210
2018-10-03T13:08:43.003Z,200
2018-10-03T13:09:52.508Z,220
2018-10-03T13:11:02.279Z,205
2018-10-03T13:12:11.523Z,230
2018-10-03T13:13:21.307Z,240
2018-10-03T13:14:31.353Z,220
2018-10-03T13:15:40.858Z,230
2018-10-03T13:16:50.896Z,225
2018-10-03T13:18:00.399Z,235
2018-10-03T13:19:10.443Z,220
2018-10-03T13:20:20.483Z,200
2018-10-03T13:21:29.996Z,190
2018-10-03T13:22:39.233Z,185
2018-10-03T13:23:49.004Z,185
2018-10-03T13:24:58.773Z,200
2018-10-03T13:26:08.561Z,220
2018-10-03T13:27:18.600Z,610
2018-10-03T13:28:28.376Z,280
2018-10-03T13:29:38.413Z,295
2018-10-03T13:30:48.873Z,320
2018-10-03T13:31:58.651Z,255
2018-10-03T13:33:08.206Z,235
2018-10-03T13:34:17.975Z,265
2018-10-03T13:35:28.019Z,270
2018-10-03T13:36:38.051Z,235
2018-10-03T13:37:47.555Z,205
2018-10-03T13:38:57.648Z,210
2018-10-03T13:40:07.148Z,255
2018-10-03T13:41:17.010Z,200
2018-10-03T13:42:27.111Z,190
2018-10-03T13:43:36.880Z,270
2018-10-03T13:44:46.968Z,180
2018-10-03T13:45:57.006Z,385
2018-10-03T13:47:06.518Z,395
2018-10-03T13:48:16.020Z,285
2018-10-03T13:49:26.071Z,360
2018-10-03T13:50:36.185Z,500
2018-10-03T13:51:45.687Z,380
2018-10-03T13:52:55.720Z,220
2018-10-03T13:54:05.225Z,205
2018-10-03T13:55:15.025Z,250
2018-10-03T13:56:24.568Z,195
2018-10-03T13:57:34.080Z,470
2018-10-03T13:58:44.119Z,830
2018-10-03T13:59:53.621Z,650
2018-10-03T14:01:03.654Z,490
2018-10-03T14:02:12.932Z,240
2018-10-03T14:03:22.965Z,225
2018-10-03T14:04:33.007Z,195
2018-10-03T14:05:43.042Z,175
2018-10-03T14:06:53.072Z,170
2018-10-03T14:08:02.886Z,180
2018-10-03T14:09:12.661Z,190
2018-10-03T14:10:22.425Z,200
2018-10-03T14:11:32.460Z,205
2018-10-03T14:12:42.224Z,365
2018-10-03T14:13:52.319Z,300
2018-10-03T14:15:02.087Z,260
2018-10-03T14:16:11.587Z,265
2018-10-03T14:17:21.355Z,275
2018-10-03T14:18:31.812Z,275
2018-10-03T14:19:41.316Z,280
2018-10-03T14:20:51.363Z,310
2018-10-03T14:22:01.404Z,310
2018-10-03T14:23:11.442Z,280
2018-10-03T14:24:21.369Z,270
2018-10-03T14:25:31.497Z,280
2018-10-03T14:26:41.551Z,280
2018-10-03T14:27:51.317Z,270
2018-10-03T14:29:01.088Z,265
2018-10-03T14:30:11.177Z,995
2018-10-03T14:31:21.237Z,830
2018-10-03T14:32:31.001Z,520
2018-10-03T14:33:40.871Z,515
2018-10-03T14:34:50.905Z,470
2018-10-03T14:36:00.403Z,250
2018-10-03T14:37:10.491Z,285
2018-10-03T14:38:20.541Z,340
2018-10-03T14:39:30.583Z,280
2018-10-03T14:40:39.823Z,510
2018-10-03T14:41:49.626Z,550
2018-10-03T14:42:59.172Z,650
2018-10-03T14:44:08.698Z,605
2018-10-03T14:45:18.472Z,680
2018-10-03T14:46:28.254Z,515
2018-10-03T14:47:37.751Z,270
2018-10-03T14:48:47.834Z,290
2018-10-03T14:49:57.608Z,270
2018-10-03T14:51:07.643Z,660
2018-10-03T14:52:18.317Z,695
2018-10-03T14:53:28.388Z,265
2018-10-03T14:54:38.212Z,795
2018-10-03T14:55:48.255Z,250
2018-10-03T14:56:58.026Z,315
2018-10-03T14:58:08.066Z,205
2018-10-03T14:59:17.838Z,200
2018-10-03T15:00:27.881Z,210
2018-10-03T15:01:37.550Z,180
2018-10-03T15:02:47.753Z,180
2018-10-03T15:03:57.795Z,220
2018-10-03T15:05:07.022Z,1180
2018-10-03T15:06:17.106Z,1180
2018-10-03T15:07:26.878Z,1185
2018-10-03T15:08:36.912Z,1165
2018-10-03T15:09:46.411Z,1160
2018-10-03T15:10:56.449Z,1140
2018-10-03T15:12:06.267Z,1145
2018-10-03T15:13:16.034Z,1165
2018-10-03T15:14:25.800Z,180
2018-10-03T15:15:35.032Z,1140
2018-10-03T15:16:45.071Z,405
2018-10-03T15:17:54.849Z,160
2018-10-03T15:19:04.893Z,150
2018-10-03T15:20:14.667Z,1025
2018-10-03T15:21:24.714Z,1000
2018-10-03T15:22:34.214Z,170
2018-10-03T15:23:44.037Z,150
2018-10-03T15:24:53.820Z,135
2018-10-03T15:26:03.593Z,845
2018-10-03T15:27:13.644Z,520
2018-10-03T15:28:23.691Z,245
2018-10-03T15:29:33.834Z,275
2018-10-03T15:30:43.605Z,245
2018-10-03T15:31:53.645Z,300
2018-10-03T15:33:03.685Z,160
2018-10-03T15:34:13.468Z,175
2018-10-03T15:35:23.124Z,110
2018-10-03T15:36:32.961Z,105
2018-10-03T15:37:42.461Z,105
2018-10-03T15:38:52.234Z,105
2018-10-03T15:40:02.267Z,100
2018-10-03T15:41:12.038Z,100
2018-10-03T15:42:22.835Z,100
2018-10-03T15:43:32.870Z,100
2018-10-03T15:44:42.635Z,100
2018-10-03T15:45:52.399Z,155
2018-10-03T15:47:02.443Z,165
2018-10-03T15:48:12.514Z,185
2018-10-03T15:49:22.600Z,165
2018-10-03T15:50:32.103Z,130
2018-10-03T15:51:41.904Z,110
2018-10-03T15:52:51.404Z,95
2018-10-03T15:54:01.171Z,110
2018-10-03T15:55:11.843Z,95
2018-10-03T15:56:21.879Z,95
2018-10-03T15:57:31.910Z,130
2018-10-03T15:58:41.993Z,140
2018-10-03T15:59:51.498Z,105
2018-10-03T16:01:01.534Z,95
2018-10-03T16:02:11.322Z,185
2018-10-03T16:03:21.122Z,110
2018-10-03T16:04:31.167Z,85
2018-10-03T16:05:40.929Z,85
2018-10-03T16:06:50.419Z,85
2018-10-03T16:08:00.180Z,85
2018-10-03T16:09:10.209Z,70
2018-10-03T16:10:19.972Z,70
2018-10-03T16:11:29.207Z,80
2018-10-03T16:12:38.979Z,60
2018-10-03T16:13:48.481Z,55
2018-10-03T16:14:58.244Z,55
2018-10-03T16:16:08.012Z,55
2018-10-03T16:17:17.246Z,50
2018-10-03T16:18:27.006Z,50
2018-10-03T16:19:36.500Z,45
2018-10-03T16:20:46.268Z,45
2018-10-03T16:21:56.297Z,45
2018-10-03T16:23:06.060Z,40
2018-10-03T16:24:15.553Z,40
2018-10-03T16:25:25.317Z,40
2018-10-03T16:26:35.641Z,35